Onoway, Canada
Current Conditions -  °F | °C
As of 6:00 PM on Saturday 25 Oct 2014 (Local Time) from CWSE Reporting Station
Broken Clouds Broken Clouds  
Wind Chill: 37°   Ceiling: 9800
Heat Index: 43°   Visibility: 15mi
Dew Point: 26°   Wind: 12mph
Humidity: 51%   Direction: 100°E
Pressure: 29.64"   Gusts: NA
Location:  53.7°N, 114.18°W
Report Text: CWSE 260000Z 10010KT 15SM BKN098 06/M03 A2964 RMK SLP057 T00621034 WSI/SWOB
Loading
Personal Weather Stations






























Interactive Weather Map
Tropical Storm Tracking
New forecast layout! Learn more

10-Day Weather Forecast

Advertisements
Track Severe Weather on mobile